Time;durP1;ratioP1;P1;durP2;ratioP2;P2;SDS_P1;SDS_P2;PMS_P1;PMS_P2;Temp;Humidity;BMP_temperature;BMP_pressure;BME280_temperature;BME280_humidity;BME280_pressure;Samples;Min_cycle;Max_cycle;Signal;HPM_P1;HPM_P2
2022/08/04 00:02:14;;;;;;;0.00;0.00;;;24.40;99.90;;;;;;5067061;28;20218;-72
2022/08/04 00:04:48;;;;;;;0.00;0.00;;;24.40;99.90;;;;;;5062931;28;20250;-72
2022/08/04 00:07:23;;;;;;;0.00;0.00;;;24.30;99.90;;;;;;5064861;28;20231;-73
2022/08/04 00:09:59;;;;;;;0.00;0.00;;;24.30;99.90;;;;;;5064645;28;20268;-71
2022/08/04 00:12:32;;;;;;;0.00;0.00;;;24.30;99.90;;;;;;5065385;28;20205;-73
2022/08/04 00:15:01;;;;;;;0.00;0.00;;;24.30;99.90;;;;;;5064661;28;20245;-71
2022/08/04 00:17:35;;;;;;;0.00;0.00;;;24.30;99.90;;;;;;5064986;28;20203;-72
2022/08/04 00:20:05;;;;;;;0.00;0.00;;;24.20;99.90;;;;;;5064026;28;20202;-71
2022/08/04 00:22:35;;;;;;;0.00;0.00;;;24.20;99.90;;;;;;5063241;28;20203;-72
2022/08/04 00:25:03;;;;;;;0.00;0.00;;;24.20;99.90;;;;;;5065867;28;20217;-73
2022/08/04 00:27:32;;;;;;;0.00;0.00;;;24.20;99.90;;;;;;5064642;28;20202;-71
2022/08/04 00:30:00;;;;;;;0.00;0.00;;;24.10;99.90;;;;;;5060886;28;20218;-72
2022/08/04 00:32:27;;;;;;;0.00;0.00;;;24.00;99.90;;;;;;5064230;28;20198;-72
2022/08/04 00:34:57;;;;;;;0.00;0.00;;;23.90;99.90;;;;;;5061351;28;20206;-72
2022/08/04 00:37:26;;;;;;;0.00;0.00;;;23.80;99.90;;;;;;5061983;28;20237;-71
2022/08/04 00:39:54;;;;;;;0.00;0.00;;;23.70;99.90;;;;;;5064825;28;20202;-72
2022/08/04 00:42:41;;;;;;;0.00;0.00;;;23.70;99.90;;;;;;5065285;28;20264;-71
2022/08/04 00:45:34;;;;;;;0.00;0.00;;;23.60;99.90;;;;;;5064921;28;20221;-71
2022/08/04 00:48:16;;;;;;;0.00;0.00;;;23.60;99.90;;;;;;5021598;28;20250;-72
2022/08/04 00:50:55;;;;;;;0.00;0.00;;;23.60;99.90;;;;;;5065470;28;20225;-71
2022/08/04 00:53:36;;;;;;;0.00;0.00;;;23.60;99.90;;;;;;5070757;28;20287;-71
2022/08/04 00:56:29;;;;;;;0.00;0.00;;;23.50;99.90;;;;;;5064694;28;20211;-71
2022/08/04 00:59:08;;;;;;;0.00;0.00;;;23.50;99.90;;;;;;5060931;28;20211;-70
2022/08/04 01:02:00;;;;;;;0.00;0.00;;;23.50;99.90;;;;;;5064361;28;20222;-72
2022/08/04 01:04:45;;;;;;;0.00;0.00;;;23.50;99.90;;;;;;5053857;28;20242;-72
2022/08/04 01:07:50;;;;;;;0.00;0.00;;;23.40;99.90;;;;;;5066894;28;20202;-71
2022/08/04 01:10:26;;;;;;;0.00;0.00;;;23.40;99.90;;;;;;5053722;28;20226;-72
2022/08/04 01:20:25;;;;;;;0.00;0.00;;;23.30;99.90;;;;;;5073426;28;20194;-73
2022/08/04 01:23:32;;;;;;;0.00;0.00;;;23.20;99.90;;;;;;5061703;28;20221;-72
2022/08/04 01:26:26;;;;;;;0.00;0.00;;;23.20;99.90;;;;;;5075777;28;20231;-73
2022/08/04 01:29:09;;;;;;;0.00;0.00;;;23.20;99.90;;;;;;5060549;28;20569;-72
2022/08/04 01:31:55;;;;;;;0.00;0.00;;;23.10;99.90;;;;;;5078207;28;20222;-72
2022/08/04 01:34:23;;;;;;;0.00;0.00;;;23.10;99.90;;;;;;5061355;28;20218;-72
2022/08/04 01:36:59;;;;;;;0.00;0.00;;;23.00;99.90;;;;;;5063498;28;20690;-72
2022/08/04 01:39:40;;;;;;;0.00;0.00;;;23.00;99.90;;;;;;5061997;28;20214;-72
2022/08/04 01:42:09;;;;;;;0.00;0.00;;;22.90;99.90;;;;;;5063441;28;20260;-72
2022/08/04 01:44:40;;;;;;;0.00;0.00;;;22.80;99.90;;;;;;5063165;28;20253;-73
2022/08/04 01:47:09;;;;;;;0.00;0.00;;;22.80;99.90;;;;;;5064587;28;20278;-70
2022/08/04 01:49:38;;;;;;;0.00;0.00;;;22.80;99.90;;;;;;5061949;28;20741;-71
2022/08/04 01:52:09;;;;;;;0.00;0.00;;;22.80;99.90;;;;;;5061469;28;20275;-71
2022/08/04 01:54:41;;;;;;;0.00;0.00;;;22.80;99.90;;;;;;5062675;28;20229;-72
2022/08/04 01:57:10;;;;;;;0.00;0.00;;;22.80;99.90;;;;;;5064510;28;20195;-73
2022/08/04 01:59:38;;;;;;;0.00;0.00;;;22.70;99.90;;;;;;5064514;28;20198;-71
2022/08/04 02:02:06;;;;;;;0.00;0.00;;;22.70;99.90;;;;;;5063373;28;20230;-70
2022/08/04 02:04:35;;;;;;;0.00;0.00;;;22.70;99.90;;;;;;5063095;28;20226;-71
2022/08/04 02:07:13;;;;;;;0.00;0.00;;;22.70;99.90;;;;;;5065042;28;20202;-72
2022/08/04 02:09:47;;;;;;;0.00;0.00;;;22.70;99.90;;;;;;5062835;28;20241;-72
2022/08/04 02:12:27;;;;;;;0.00;0.00;;;22.60;99.90;;;;;;5065312;28;20220;-71
2022/08/04 02:15:04;;;;;;;0.00;0.00;;;22.50;99.90;;;;;;5065720;28;20229;-71
2022/08/04 02:17:39;;;;;;;0.00;0.00;;;22.60;99.90;;;;;;5067150;28;20206;-71
2022/08/04 02:20:09;;;;;;;0.00;0.00;;;22.50;99.90;;;;;;5063314;28;20214;-70
2022/08/04 02:22:47;;;;;;;0.00;0.00;;;22.50;99.90;;;;;;5066590;28;20219;-73
2022/08/04 02:25:21;;;;;;;0.00;0.00;;;22.50;99.90;;;;;;5067301;28;20218;-71
2022/08/04 02:27:59;;;;;;;0.00;0.00;;;22.40;99.90;;;;;;5066445;28;20725;-71
2022/08/04 02:30:31;;;;;;;0.00;0.00;;;22.40;99.90;;;;;;5065507;28;20275;-71
2022/08/04 02:33:03;;;;;;;0.00;0.00;;;22.40;99.90;;;;;;5064909;28;20291;-70
2022/08/04 02:35:36;;;;;;;0.00;0.00;;;22.30;99.90;;;;;;5062525;28;20230;-71
2022/08/04 02:38:12;;;;;;;0.00;0.00;;;22.30;99.90;;;;;;5063871;28;20202;-71
2022/08/04 02:40:41;;;;;;;0.00;0.00;;;22.20;99.90;;;;;;5064668;28;20214;-71
2022/08/04 02:43:10;;;;;;;0.00;0.00;;;22.20;99.90;;;;;;5066860;28;20272;-72
2022/08/04 02:45:43;;;;;;;0.00;0.00;;;22.20;99.90;;;;;;5066233;28;20226;-72
2022/08/04 02:48:13;;;;;;;0.00;0.00;;;22.20;99.90;;;;;;5068003;28;20198;-71
2022/08/04 02:50:43;;;;;;;0.00;0.00;;;22.10;99.90;;;;;;5065194;28;20190;-71
2022/08/04 02:53:14;;;;;;;0.00;0.00;;;22.20;99.90;;;;;;5066261;28;20734;-72
2022/08/04 02:55:44;;;;;;;0.00;0.00;;;22.10;99.90;;;;;;5066517;28;20219;-71
2022/08/04 02:58:14;;;;;;;0.00;0.00;;;22.10;99.90;;;;;;5064129;28;20207;-71
2022/08/04 03:00:45;;;;;;;0.00;0.00;;;22.10;99.90;;;;;;5065112;28;20224;-71
2022/08/04 03:03:24;;;;;;;0.00;0.00;;;22.00;99.90;;;;;;5063008;28;20318;-72
2022/08/04 03:06:16;;;;;;;0.00;0.00;;;22.00;99.90;;;;;;5066305;28;20252;-72
2022/08/04 03:09:12;;;;;;;0.00;0.00;;;22.00;99.90;;;;;;5066150;28;20753;-72
2022/08/04 03:12:19;;;;;;;0.00;0.00;;;21.90;99.90;;;;;;5065376;28;20209;-74
2022/08/04 03:15:10;;;;;;;0.00;0.00;;;21.90;99.90;;;;;;5065788;28;20662;-72
2022/08/04 03:18:14;;;;;;;0.00;0.00;;;21.90;99.90;;;;;;5064169;28;20198;-72
2022/08/04 03:21:20;;;;;;;0.00;0.00;;;21.80;99.90;;;;;;5064606;28;20206;-71
2022/08/04 03:24:25;;;;;;;0.00;0.00;;;21.80;99.90;;;;;;5050969;28;20209;-71
2022/08/04 03:27:21;;;;;;;0.00;0.00;;;21.80;99.90;;;;;;5065392;28;20199;-71
2022/08/04 03:30:04;;;;;;;0.00;0.00;;;21.70;99.90;;;;;;5062409;28;20203;-71
2022/08/04 03:33:20;;;;;;;0.00;0.00;;;21.70;99.90;;;;;;5064976;28;20253;-72
2022/08/04 03:36:07;;;;;;;0.00;0.00;;;21.70;99.90;;;;;;5064590;28;20223;-72
2022/08/04 03:39:22;;;;;;;0.00;0.00;;;21.60;99.90;;;;;;5064053;28;20209;-72
2022/08/04 03:42:13;;;;;;;0.00;0.00;;;21.50;99.90;;;;;;5043965;28;20250;-73
2022/08/04 03:45:08;;;;;;;0.00;0.00;;;21.50;99.90;;;;;;5064500;28;20226;-72
2022/08/04 03:48:05;;;;;;;0.00;0.00;;;21.40;99.90;;;;;;5063331;28;20234;-71
2022/08/04 03:54:09;;;;;;;0.00;0.00;;;21.30;99.90;;;;;;5067022;28;20759;-70
2022/08/04 03:56:59;;;;;;;0.00;0.00;;;21.30;99.90;;;;;;5066138;28;20292;-71
2022/08/04 03:59:50;;;;;;;0.00;0.00;;;21.30;99.90;;;;;;5066992;28;20213;-71
2022/08/04 04:03:00;;;;;;;0.00;0.00;;;21.30;99.90;;;;;;5065634;28;20230;-71
2022/08/04 04:06:12;;;;;;;0.00;0.00;;;21.30;99.90;;;;;;5064901;28;20303;-71
2022/08/04 04:08:57;;;;;;;0.00;0.00;;;21.30;99.90;;;;;;5065729;28;20206;-72
2022/08/04 04:11:50;;;;;;;0.00;0.00;;;21.30;99.90;;;;;;5064263;28;20203;-72
2022/08/04 04:14:43;;;;;;;0.00;0.00;;;21.30;99.90;;;;;;5064817;28;20198;-71
2022/08/04 04:17:33;;;;;;;0.00;0.00;;;21.40;99.90;;;;;;5062434;28;20285;-72
2022/08/04 04:20:26;;;;;;;0.00;0.00;;;21.50;99.90;;;;;;5068251;28;20194;-72
2022/08/04 04:23:15;;;;;;;0.00;0.00;;;21.60;99.90;;;;;;5064995;28;20233;-72
2022/08/04 04:25:57;;;;;;;0.00;0.00;;;21.70;99.90;;;;;;5063388;28;20223;-72
2022/08/04 04:28:48;;;;;;;0.00;0.00;;;21.80;99.90;;;;;;5064852;28;20289;-71
2022/08/04 04:31:42;;;;;;;0.00;0.00;;;21.80;99.90;;;;;;5062503;28;20308;-71
2022/08/04 04:34:26;;;;;;;0.00;0.00;;;21.70;99.90;;;;;;5062622;28;20302;-72
2022/08/04 04:37:11;;;;;;;0.00;0.00;;;21.60;99.90;;;;;;5065698;28;20222;-71
2022/08/04 04:39:50;;;;;;;0.00;0.00;;;21.60;99.90;;;;;;5065832;28;20206;-72
2022/08/04 04:42:38;;;;;;;0.00;0.00;;;21.60;99.90;;;;;;5063676;28;20225;-72
2022/08/04 04:45:22;;;;;;;0.00;0.00;;;21.70;99.90;;;;;;5081317;28;20214;-72
2022/08/04 04:47:58;;;;;;;0.00;0.00;;;21.90;99.90;;;;;;5064561;28;20213;-71
2022/08/04 04:50:36;;;;;;;0.00;0.00;;;22.10;99.90;;;;;;5062714;28;20261;-71
2022/08/04 04:53:12;;;;;;;0.00;0.00;;;22.20;99.90;;;;;;5061054;28;20194;-71
2022/08/04 04:55:43;;;;;;;0.00;0.00;;;22.50;99.90;;;;;;5064387;28;20312;-72
2022/08/04 04:58:17;;;;;;;0.00;0.00;;;22.70;99.90;;;;;;5061895;28;20248;-71
2022/08/04 05:01:10;;;;;;;0.00;0.00;;;22.90;99.90;;;;;;5064358;28;20213;-71
2022/08/04 05:03:48;;;;;;;0.00;0.00;;;23.10;99.90;;;;;;5065482;28;20202;-73
2022/08/04 05:06:45;;;;;;;0.00;0.00;;;23.30;99.90;;;;;;5063366;28;20225;-71
2022/08/04 05:09:28;;;;;;;0.00;0.00;;;23.60;99.90;;;;;;5060969;28;20198;-72
2022/08/04 05:12:38;;;;;;;0.00;0.00;;;23.80;99.90;;;;;;5059695;28;20199;-71
2022/08/04 05:15:08;;;;;;;0.00;0.00;;;24.00;99.90;;;;;;5064268;28;20313;-71
2022/08/04 05:17:45;;;;;;;0.00;0.00;;;24.20;99.90;;;;;;5062062;28;20206;-71
2022/08/04 05:20:28;;;;;;;0.00;0.00;;;24.40;99.90;;;;;;5060816;28;20199;-71
2022/08/04 05:23:50;;;;;;;0.00;0.00;;;24.60;99.90;;;;;;5065186;28;20218;-71
2022/08/04 05:26:25;;;;;;;0.00;0.00;;;24.80;99.90;;;;;;5064972;28;20309;-73
2022/08/04 05:28:55;;;;;;;0.00;0.00;;;24.70;99.90;;;;;;5061672;28;20198;-74
2022/08/04 05:31:27;;;;;;;0.00;0.00;;;24.70;99.90;;;;;;5065512;28;20198;-75
2022/08/04 05:33:58;;;;;;;0.00;0.00;;;24.80;99.90;;;;;;5063210;28;20208;-71
2022/08/04 05:36:33;;;;;;;0.00;0.00;;;24.90;99.90;;;;;;5064139;28;20198;-71
2022/08/04 05:39:03;;;;;;;0.00;0.00;;;25.10;99.90;;;;;;5059816;28;20216;-70
2022/08/04 05:41:34;;;;;;;0.00;0.00;;;25.30;99.90;;;;;;5076850;28;20659;-71
2022/08/04 05:44:09;;;;;;;0.00;0.00;;;25.50;99.90;;;;;;5064587;28;20218;-75
2022/08/04 05:46:40;;;;;;;0.00;0.00;;;25.70;99.90;;;;;;5064766;28;20260;-74
2022/08/04 05:49:09;;;;;;;0.00;0.00;;;25.80;99.90;;;;;;5067257;28;20199;-72
2022/08/04 05:51:37;;;;;;;0.00;0.00;;;26.00;99.90;;;;;;5071485;28;20273;-74
2022/08/04 05:54:05;;;;;;;0.00;0.00;;;26.10;99.90;;;;;;5071213;28;20209;-74
2022/08/04 05:56:34;;;;;;;0.00;0.00;;;26.20;99.90;;;;;;5068368;28;20304;-74
2022/08/04 05:59:03;;;;;;;0.00;0.00;;;26.40;99.90;;;;;;5067737;28;20198;-71
2022/08/04 06:01:32;;;;;;;0.00;0.00;;;26.50;99.90;;;;;;5066416;28;20206;-70
2022/08/04 06:04:02;;;;;;;0.00;0.00;;;26.70;99.90;;;;;;5068311;28;20220;-71
2022/08/04 06:06:31;;;;;;;0.00;0.00;;;26.80;99.90;;;;;;5066652;28;20202;-71
2022/08/04 06:08:59;;;;;;;0.00;0.00;;;27.00;99.90;;;;;;5065324;28;20194;-71
2022/08/04 06:11:28;;;;;;;0.00;0.00;;;27.10;99.90;;;;;;5067234;28;20203;-71
2022/08/04 06:13:59;;;;;;;0.00;0.00;;;27.20;99.90;;;;;;5065672;28;20198;-77
2022/08/04 06:16:34;;;;;;;0.00;0.00;;;27.30;99.90;;;;;;5067617;28;20195;-74
2022/08/04 06:19:06;;;;;;;0.00;0.00;;;27.40;99.90;;;;;;5069002;28;20194;-70
2022/08/04 06:21:37;;;;;;;0.00;0.00;;;27.50;99.90;;;;;;5067256;28;20198;-70
2022/08/04 06:24:09;;;;;;;0.00;0.00;;;27.60;99.90;;;;;;5066194;28;20198;-72
2022/08/04 06:26:39;;;;;;;0.00;0.00;;;27.70;99.90;;;;;;5069037;28;20203;-71
2022/08/04 06:29:15;;;;;;;0.00;0.00;;;27.80;99.90;;;;;;5065549;28;20195;-73
2022/08/04 06:31:46;;;;;;;0.00;0.00;;;28.00;99.90;;;;;;5065889;28;20198;-71
2022/08/04 06:34:15;;;;;;;0.00;0.00;;;28.10;99.90;;;;;;5066418;28;20195;-71
2022/08/04 06:36:43;;;;;;;0.00;0.00;;;28.30;99.90;;;;;;5066732;28;20214;-71
2022/08/04 06:39:12;;;;;;;0.00;0.00;;;28.40;99.90;;;;;;5066861;28;20269;-72
2022/08/04 06:41:40;;;;;;;0.00;0.00;;;28.60;99.90;;;;;;5068605;28;20233;-73
2022/08/04 06:44:10;;;;;;;0.00;0.00;;;28.60;99.90;;;;;;5066834;28;20210;-75
2022/08/04 06:46:39;;;;;;;0.00;0.00;;;28.70;99.90;;;;;;5067960;28;20217;-74
2022/08/04 06:49:08;;;;;;;0.00;0.00;;;28.90;99.90;;;;;;5065983;28;20203;-73
2022/08/04 06:51:38;;;;;;;0.00;0.00;;;29.00;99.90;;;;;;5064590;28;20199;-71
2022/08/04 06:54:05;;;;;;;0.00;0.00;;;29.20;99.90;;;;;;5068266;28;20241;-73
2022/08/04 06:56:34;;;;;;;0.00;0.00;;;29.30;99.90;;;;;;5064621;28;20203;-74
2022/08/04 06:59:02;;;;;;;0.00;0.00;;;29.50;99.90;;;;;;5066116;28;20698;-73
2022/08/04 07:01:31;;;;;;;0.00;0.00;;;29.70;99.90;;;;;;5066786;28;20202;-70
2022/08/04 07:03:59;;;;;;;0.00;0.00;;;29.80;99.90;;;;;;5064279;28;20314;-71
2022/08/04 07:06:27;;;;;;;0.00;0.00;;;30.00;99.90;;;;;;5065869;28;20206;-70
2022/08/04 07:08:56;;;;;;;0.00;0.00;;;30.10;99.90;;;;;;5064327;28;20240;-71
2022/08/04 07:11:23;;;;;;;0.00;0.00;;;30.30;99.90;;;;;;5067717;28;20264;-72
2022/08/04 07:13:54;;;;;;;0.00;0.00;;;30.50;99.90;;;;;;5065755;28;20214;-70
2022/08/04 07:16:22;;;;;;;0.00;0.00;;;30.60;99.90;;;;;;5062151;28;20227;-70
2022/08/04 07:18:50;;;;;;;0.00;0.00;;;30.80;99.90;;;;;;5058762;28;20198;-71
2022/08/04 07:21:21;;;;;;;0.00;0.00;;;30.90;99.90;;;;;;5057527;28;20217;-71
2022/08/04 07:23:49;;;;;;;0.00;0.00;;;31.10;99.90;;;;;;5063386;28;20211;-74
2022/08/04 07:26:18;;;;;;;0.00;0.00;;;31.10;99.90;;;;;;5061922;28;20647;-73
2022/08/04 07:28:46;;;;;;;0.00;0.00;;;31.20;99.90;;;;;;5064177;28;20203;-72
2022/08/04 07:31:18;;;;;;;0.00;0.00;;;31.20;99.90;;;;;;5060135;28;20259;-75
2022/08/04 07:33:46;;;;;;;0.00;0.00;;;;;;;;;;5058492;28;20581;-73
2022/08/04 07:36:13;;;;;;;0.00;0.00;;;31.20;99.90;;;;;;5065416;28;20211;-74
2022/08/04 07:38:42;;;;;;;0.00;0.00;;;;;;;;;;5062670;28;20206;-74
2022/08/04 07:41:10;;;;;;;0.00;0.00;;;;;;;;;;5056825;28;20203;-74
2022/08/04 07:43:39;;;;;;;0.00;0.00;;;31.60;99.90;;;;;;5057960;28;20218;-72
2022/08/04 07:46:06;;;;;;;0.00;0.00;;;31.70;99.90;;;;;;5056852;28;20221;-71
2022/08/04 07:48:34;;;;;;;0.00;0.00;;;;;;;;;;5059813;28;20198;-72
2022/08/04 07:51:02;;;;;;;0.00;0.00;;;32.10;99.90;;;;;;5060826;28;20203;-72
2022/08/04 07:53:30;;;;;;;0.00;0.00;;;32.40;99.90;;;;;;5058515;28;20218;-72
2022/08/04 07:55:57;;;;;;;0.00;0.00;;;32.30;99.90;;;;;;5065102;28;20253;-72
2022/08/04 07:58:27;;;;;;;0.00;0.00;;;32.40;99.90;;;;;;5057756;28;20210;-73
2022/08/04 08:00:55;;;;;;;0.00;0.00;;;32.40;99.90;;;;;;5058213;28;20194;-72
2022/08/04 08:03:23;;;;;;;0.00;0.00;;;32.60;99.90;;;;;;5055257;28;20223;-72
2022/08/04 08:05:50;;;;;;;0.00;0.00;;;32.70;99.90;;;;;;5060076;28;20293;-72
2022/08/04 08:08:19;;;;;;;0.00;0.00;;;32.70;99.90;;;;;;5059253;28;20210;-71
2022/08/04 08:10:47;;;;;;;0.00;0.00;;;32.90;99.90;;;;;;5060260;28;20241;-71
2022/08/04 08:13:15;;;;;;;0.00;0.00;;;33.10;99.90;;;;;;5064419;28;20711;-74
2022/08/04 08:15:45;;;;;;;0.00;0.00;;;33.20;99.90;;;;;;5063724;28;20218;-74
2022/08/04 08:18:14;;;;;;;0.00;0.00;;;;;;;;;;5061307;28;20199;-74
2022/08/04 08:20:45;;;;;;;0.00;0.00;;;33.90;99.90;;;;;;5061642;28;20214;-75
2022/08/04 08:23:13;;;;;;;0.00;0.00;;;33.70;99.90;;;;;;5061593;28;20307;-71
2022/08/04 08:25:40;;;;;;;0.00;0.00;;;33.80;99.90;;;;;;5065130;28;20246;-74
2022/08/04 08:28:07;;;;;;;0.00;0.00;;;33.90;99.90;;;;;;5064696;28;20289;-71
2022/08/04 08:30:35;;;;;;;0.00;0.00;;;34.00;99.90;;;;;;5059390;28;20213;-72
2022/08/04 08:33:04;;;;;;;0.00;0.00;;;34.00;99.90;;;;;;5062846;28;20271;-73
2022/08/04 08:35:39;;;;;;;0.00;0.00;;;34.00;99.90;;;;;;5063412;28;20215;-73
2022/08/04 08:38:09;;;;;;;0.00;0.00;;;33.90;99.90;;;;;;5065159;28;20287;-77
2022/08/04 08:40:48;;;;;;;0.00;0.00;;;33.90;99.90;;;;;;5065789;28;20252;-74
2022/08/04 08:43:51;;;;;;;0.00;0.00;;;34.00;99.90;;;;;;5064888;28;20210;-76
2022/08/04 08:46:43;;;;;;;0.00;0.00;;;34.00;99.90;;;;;;5054429;28;20224;-76
2022/08/04 08:49:46;;;;;;;0.00;0.00;;;34.10;99.90;;;;;;5062047;28;20204;-74
2022/08/04 08:52:26;;;;;;;0.00;0.00;;;34.20;99.90;;;;;;5075922;28;20208;-73
2022/08/04 08:55:16;;;;;;;0.00;0.00;;;34.30;99.90;;;;;;5063629;28;20222;-73
2022/08/04 08:57:53;;;;;;;0.00;0.00;;;34.40;99.90;;;;;;5056322;28;20212;-74
2022/08/04 09:00:28;;;;;;;0.00;0.00;;;34.50;99.90;;;;;;5063904;28;20212;-73
2022/08/04 09:03:18;;;;;;;0.00;0.00;;;34.70;99.90;;;;;;5063072;28;20295;-76
2022/08/04 09:05:57;;;;;;;0.00;0.00;;;34.80;99.90;;;;;;5063141;28;20296;-74
2022/08/04 09:08:49;;;;;;;0.00;0.00;;;34.80;99.90;;;;;;5061734;28;20235;-73
2022/08/04 09:11:20;;;;;;;0.00;0.00;;;34.80;99.90;;;;;;5051565;28;20227;-74
2022/08/04 09:13:54;;;;;;;0.00;0.00;;;34.90;99.90;;;;;;5061266;28;20196;-75
2022/08/04 09:16:29;;;;;;;0.00;0.00;;;35.10;99.90;;;;;;5064232;28;20210;-75
2022/08/04 09:19:06;;;;;;;0.00;0.00;;;35.20;99.90;;;;;;5066075;28;20197;-73
2022/08/04 09:21:38;;;;;;;0.00;0.00;;;35.20;99.80;;;;;;5064044;28;20232;-74
2022/08/04 09:24:12;;;;;;;0.00;0.00;;;35.30;99.80;;;;;;5072437;28;20270;-76
2022/08/04 09:26:46;;;;;;;0.00;0.00;;;35.30;99.80;;;;;;5067025;28;20199;-72
2022/08/04 09:29:19;;;;;;;0.00;0.00;;;35.30;99.70;;;;;;5067317;28;20287;-76
2022/08/04 09:31:53;;;;;;;0.00;0.00;;;35.20;99.90;;;;;;5067258;28;20203;-74
2022/08/04 09:34:27;;;;;;;0.00;0.00;;;35.30;99.90;;;;;;5067740;28;20215;-74
2022/08/04 09:37:11;;;;;;;0.00;0.00;;;35.30;99.10;;;;;;5068560;28;20207;-72
2022/08/04 09:39:49;;;;;;;0.00;0.00;;;35.30;99.20;;;;;;5066855;28;20201;-72
2022/08/04 09:42:28;;;;;;;0.00;0.00;;;35.30;99.00;;;;;;5064809;28;20242;-73
2022/08/04 09:45:03;;;;;;;0.00;0.00;;;35.30;99.90;;;;;;5066825;28;20216;-74
2022/08/04 09:47:37;;;;;;;0.00;0.00;;;35.40;99.90;;;;;;5063140;28;20260;-76
2022/08/04 09:50:16;;;;;;;0.00;0.00;;;35.60;99.50;;;;;;5066759;28;20202;-75
2022/08/04 09:52:52;;;;;;;0.00;0.00;;;35.70;99.50;;;;;;5067321;28;20203;-76
2022/08/04 09:55:34;;;;;;;0.00;0.00;;;35.70;99.30;;;;;;5066458;28;20283;-75
2022/08/04 09:58:08;;;;;;;0.00;0.00;;;35.80;99.90;;;;;;5063462;28;20224;-72
2022/08/04 10:00:43;;;;;;;0.00;0.00;;;35.90;99.90;;;;;;5065091;28;20199;-72
2022/08/04 10:03:13;;;;;;;0.00;0.00;;;36.00;99.90;;;;;;5067123;28;20301;-73
2022/08/04 10:05:50;;;;;;;0.00;0.00;;;36.00;99.20;;;;;;5064613;28;20309;-74
2022/08/04 10:08:34;;;;;;;0.00;0.00;;;36.10;99.90;;;;;;5067441;28;20197;-75
2022/08/04 10:13:58;;;;;;;0.00;0.00;;;;;;;;;;5064578;28;20203;-73
2022/08/04 10:16:40;;;;;;;0.00;0.00;;;36.30;99.90;;;;;;5067902;28;20258;-76
2022/08/04 10:19:19;;;;;;;0.00;0.00;;;36.30;99.90;;;;;;5066648;28;20294;-76
2022/08/04 10:22:01;;;;;;;0.00;0.00;;;36.20;99.90;;;;;;5067204;28;20192;-73
2022/08/04 10:24:39;;;;;;;0.00;0.00;;;36.10;99.90;;;;;;5067244;28;20223;-80
2022/08/04 10:27:16;;;;;;;0.00;0.00;;;36.10;99.90;;;;;;5067056;28;20209;-76
2022/08/04 10:29:45;;;;;;;0.00;0.00;;;36.00;99.90;;;;;;5066512;28;20237;-77
2022/08/04 10:32:18;;;;;;;0.00;0.00;;;36.10;99.90;;;;;;5066494;28;20204;-75
2022/08/04 10:35:02;;;;;;;0.00;0.00;;;36.20;99.90;;;;;;5066665;28;20308;-76
2022/08/04 10:37:35;;;;;;;0.00;0.00;;;36.10;99.90;;;;;;5063483;28;20202;-77
2022/08/04 10:43:00;;;;;;;0.00;0.00;;;36.20;99.90;;;;;;5066203;28;20197;-72
2022/08/04 10:45:34;;;;;;;0.00;0.00;;;36.30;98.20;;;;;;5068277;28;20290;-74
2022/08/04 10:48:11;;;;;;;0.00;0.00;;;36.30;97.40;;;;;;5067046;28;20193;-73
2022/08/04 10:50:45;;;;;;;0.00;0.00;;;36.40;97.40;;;;;;5062867;28;20212;-73
2022/08/04 10:53:19;;;;;;;0.00;0.00;;;36.40;98.90;;;;;;5067768;28;20197;-75
2022/08/04 10:55:52;;;;;;;0.00;0.00;;;36.40;98.10;;;;;;5066153;28;20615;-74
2022/08/04 10:58:26;;;;;;;0.00;0.00;;;36.40;97.70;;;;;;5065513;28;20198;-72
2022/08/04 11:00:56;;;;;;;0.00;0.00;;;36.40;97.10;;;;;;5066498;28;20197;-77
2022/08/04 11:03:29;;;;;;;0.00;0.00;;;36.50;97.50;;;;;;5067943;28;20239;-74
2022/08/04 11:06:01;;;;;;;0.00;0.00;;;36.60;99.90;;;;;;5062651;28;20722;-74
2022/08/04 11:08:34;;;;;;;0.00;0.00;;;36.70;97.00;;;;;;5065504;28;20205;-77
2022/08/04 11:11:06;;;;;;;0.00;0.00;;;36.70;97.40;;;;;;5062952;28;20210;-77
2022/08/04 11:13:44;;;;;;;0.00;0.00;;;36.80;96.90;;;;;;5067629;28;20217;-73
2022/08/04 11:16:19;;;;;;;0.00;0.00;;;36.90;97.10;;;;;;5070039;28;20288;-73
2022/08/04 11:18:58;;;;;;;0.00;0.00;;;37.10;98.20;;;;;;5064944;28;20205;-74
2022/08/04 11:21:30;;;;;;;0.00;0.00;;;37.30;96.60;;;;;;5065799;28;20211;-76
2022/08/04 11:24:03;;;;;;;0.00;0.00;;;37.30;97.00;;;;;;5065805;28;20307;-78
2022/08/04 11:26:39;;;;;;;0.00;0.00;;;37.20;96.00;;;;;;5063773;28;20316;-73
2022/08/04 11:29:17;;;;;;;0.00;0.00;;;37.30;96.10;;;;;;5067771;28;20195;-72
2022/08/04 11:31:48;;;;;;;0.00;0.00;;;37.10;95.90;;;;;;5066175;28;20237;-72
2022/08/04 11:34:20;;;;;;;0.00;0.00;;;37.00;95.90;;;;;;5065092;28;20240;-72
2022/08/04 11:36:52;;;;;;;0.00;0.00;;;36.80;95.60;;;;;;5066001;28;20295;-73
2022/08/04 11:39:27;;;;;;;0.00;0.00;;;36.90;97.30;;;;;;5063527;28;20214;-71
2022/08/04 11:41:58;;;;;;;0.00;0.00;;;36.80;97.00;;;;;;5065118;28;20203;-73
2022/08/04 11:44:35;;;;;;;0.00;0.00;;;36.90;96.40;;;;;;5064512;28;20285;-76
2022/08/04 11:47:09;;;;;;;0.00;0.00;;;37.10;96.60;;;;;;5068088;28;20192;-77
2022/08/04 11:49:41;;;;;;;0.00;0.00;;;37.20;96.80;;;;;;5064526;28;20296;-73
2022/08/04 11:52:12;;;;;;;0.00;0.00;;;37.30;96.70;;;;;;5065155;28;20209;-74
2022/08/04 11:54:40;;;;;;;0.00;0.00;;;37.40;96.60;;;;;;5070392;28;20236;-75
2022/08/04 11:57:09;;;;;;;0.00;0.00;;;37.40;96.60;;;;;;5064352;28;20201;-72
2022/08/04 11:59:40;;;;;;;0.00;0.00;;;37.50;96.40;;;;;;5064581;28;20226;-77
2022/08/04 12:02:43;;;;;;;0.00;0.00;;;37.60;96.50;;;;;;5066454;28;20229;-76
2022/08/04 12:05:10;;;;;;;0.00;0.00;;;37.80;97.00;;;;;;5063246;28;20317;-75
2022/08/04 12:07:44;;;;;;;0.00;0.00;;;37.80;96.10;;;;;;5063716;28;20205;-75
2022/08/04 12:10:35;;;;;;;0.00;0.00;;;37.80;97.30;;;;;;5061983;28;20223;-76
2022/08/04 12:13:13;;;;;;;0.00;0.00;;;37.90;96.10;;;;;;5066252;28;20198;-76
2022/08/04 12:15:52;;;;;;;0.00;0.00;;;37.80;96.00;;;;;;5053858;28;20239;-73
2022/08/04 12:18:23;;;;;;;0.00;0.00;;;37.80;97.00;;;;;;5060503;28;20221;-73
2022/08/04 12:20:57;;;;;;;0.00;0.00;;;37.70;96.60;;;;;;5063363;28;20203;-72
2022/08/04 12:23:30;;;;;;;0.00;0.00;;;37.80;97.80;;;;;;5064595;28;20214;-74
2022/08/04 12:26:06;;;;;;;0.00;0.00;;;37.70;97.10;;;;;;5066202;28;20315;-77
2022/08/04 12:28:36;;;;;;;0.00;0.00;;;37.80;96.60;;;;;;5056946;28;20208;-77
2022/08/04 12:31:13;;;;;;;0.00;0.00;;;37.70;97.60;;;;;;5070095;28;20215;-73
2022/08/04 12:33:49;;;;;;;0.00;0.00;;;37.70;96.80;;;;;;5081421;28;20223;-73
2022/08/04 12:36:24;;;;;;;0.00;0.00;;;37.70;96.40;;;;;;5066884;28;20226;-78
2022/08/04 12:39:01;;;;;;;0.00;0.00;;;37.60;96.20;;;;;;5062569;28;20205;-76
2022/08/04 12:41:33;;;;;;;0.00;0.00;;;37.60;97.50;;;;;;5062639;28;20207;-78
2022/08/04 12:44:06;;;;;;;0.00;0.00;;;37.60;95.80;;;;;;5061328;28;20612;-77
2022/08/04 12:46:37;;;;;;;0.00;0.00;;;37.50;96.00;;;;;;5061794;28;20195;-77
2022/08/04 12:49:05;;;;;;;0.00;0.00;;;37.50;96.10;;;;;;5065055;28;20558;-73
2022/08/04 12:51:39;;;;;;;0.00;0.00;;;37.40;96.20;;;;;;5059683;28;20187;-72
2022/08/04 12:54:31;;;;;;;0.00;0.00;;;37.40;96.40;;;;;;5066736;28;20588;-74
2022/08/04 13:01:03;;;;;;;0.00;0.00;;;37.40;96.40;;;;;;5009800;28;20194;-76
2022/08/04 13:03:39;;;;;;;0.00;0.00;;;37.30;95.90;;;;;;5015654;28;20302;-77
2022/08/04 13:06:08;;;;;;;0.00;0.00;;;37.20;95.70;;;;;;5054932;28;20265;-78
2022/08/04 13:08:39;;;;;;;0.00;0.00;;;37.20;95.60;;;;;;5059690;28;20223;-78
2022/08/04 13:11:09;;;;;;;0.00;0.00;;;37.10;96.00;;;;;;5059433;28;20212;-76
2022/08/04 13:13:44;;;;;;;0.00;0.00;;;37.10;96.20;;;;;;5060455;28;20297;-77
2022/08/04 13:16:13;;;;;;;0.00;0.00;;;37.10;95.90;;;;;;5062096;28;20222;-73
2022/08/04 13:18:47;;;;;;;0.00;0.00;;;37.10;96.00;;;;;;5059585;28;20195;-73
2022/08/04 13:21:17;;;;;;;0.00;0.00;;;37.20;95.50;;;;;;5071201;28;20206;-73
2022/08/04 13:23:45;;;;;;;0.00;0.00;;;37.00;95.10;;;;;;5062550;28;20293;-73
2022/08/04 13:26:13;;;;;;;0.00;0.00;;;36.90;95.90;;;;;;5065039;28;20222;-74
2022/08/04 13:28:43;;;;;;;0.00;0.00;;;36.80;95.70;;;;;;5062997;28;20217;-74
2022/08/04 13:31:15;;;;;;;0.00;0.00;;;36.90;95.90;;;;;;5062229;28;20340;-74
2022/08/04 13:33:46;;;;;;;0.00;0.00;;;36.90;95.70;;;;;;5063326;28;20204;-74
2022/08/04 13:36:14;;;;;;;0.00;0.00;;;37.00;95.40;;;;;;5063153;28;20249;-73
2022/08/04 13:38:49;;;;;;;0.00;0.00;;;36.90;94.70;;;;;;5065078;28;20194;-72
2022/08/04 13:41:18;;;;;;;0.00;0.00;;;36.90;95.80;;;;;;5060334;28;20207;-74
2022/08/04 13:43:48;;;;;;;0.00;0.00;;;36.90;95.20;;;;;;5061328;28;20202;-72
2022/08/04 13:46:20;;;;;;;0.00;0.00;;;36.90;95.90;;;;;;5061762;28;20214;-72
2022/08/04 13:48:49;;;;;;;0.00;0.00;;;36.90;95.50;;;;;;5065076;28;20214;-72
2022/08/04 13:51:18;;;;;;;0.00;0.00;;;37.00;95.70;;;;;;5065940;28;20289;-72
2022/08/04 13:53:47;;;;;;;0.00;0.00;;;37.10;95.30;;;;;;5064868;28;20276;-72
2022/08/04 13:56:16;;;;;;;0.00;0.00;;;37.10;95.30;;;;;;5064117;28;20241;-74